createdAt,value
2019-04-29T00:00:31.581Z,76.78
2019-04-29T00:01:31.613Z,76.13
2019-04-29T00:02:31.572Z,76.78
2019-04-29T00:03:31.545Z,76.95
2019-04-29T00:04:31.535Z,76.57
2019-04-29T00:05:31.523Z,76.57
2019-04-29T00:06:31.538Z,76.68
2019-04-29T00:07:31.502Z,76.75
2019-04-29T00:08:31.494Z,77.09
2019-04-29T00:09:31.485Z,76.98
2019-04-29T00:10:31.470Z,76.95
2019-04-29T00:11:31.500Z,77.19
2019-04-29T00:12:31.447Z,77.15
2019-04-29T00:13:31.439Z,77.29
2019-04-29T00:14:31.435Z,77.29
2019-04-29T00:15:31.417Z,77.15
2019-04-29T00:16:31.405Z,77.19
2019-04-29T00:17:31.421Z,77.19
2019-04-29T00:18:31.458Z,77.46
2019-04-29T00:19:31.372Z,77.50
2019-04-29T00:20:31.361Z,77.50
2019-04-29T00:21:31.356Z,77.80
2019-04-29T00:22:31.363Z,77.91
2019-04-29T00:23:31.335Z,77.91
2019-04-29T00:24:31.319Z,77.91
2019-04-29T00:25:31.311Z,78.01
2019-04-29T00:26:31.297Z,78.21
2019-04-29T00:27:31.321Z,78.31
2019-04-29T00:28:31.275Z,78.31
2019-04-29T00:29:31.264Z,78.21
2019-04-29T00:30:31.252Z,78.42
2019-04-29T00:31:31.243Z,78.42
2019-04-29T00:32:31.235Z,78.52
2019-04-29T00:33:31.247Z,78.83
2019-04-29T00:34:31.209Z,79.07
2019-04-29T00:35:31.198Z,78.97
2019-04-29T00:36:31.189Z,79.17
2019-04-29T00:37:31.177Z,79.44
2019-04-29T00:38:31.196Z,79.34
2019-04-29T00:39:31.156Z,79.34
2019-04-29T00:40:31.144Z,79.17
2019-04-29T00:41:31.133Z,79.27
2019-04-29T00:42:31.123Z,79.34
2019-04-29T00:43:31.136Z,79.48
2019-04-29T00:44:31.103Z,79.68
2019-04-29T00:45:31.088Z,79.48
2019-04-29T00:46:31.078Z,79.58
2019-04-29T00:47:31.067Z,79.79
2019-04-29T00:48:31.080Z,79.89
2019-04-29T00:49:31.044Z,79.79
2019-04-29T00:50:31.033Z,79.54
2019-04-29T00:51:31.027Z,79.79
2019-04-29T00:52:31.015Z,79.68
2019-04-29T00:53:31.038Z,79.58
2019-04-29T00:54:30.989Z,79.89
2019-04-29T00:55:30.979Z,79.38
2019-04-29T00:56:30.969Z,79.27
2019-04-29T00:57:30.957Z,79.48
2019-04-29T00:58:30.948Z,79.54
2019-04-29T00:59:30.964Z,79.58
2019-04-29T01:00:30.925Z,79.68
2019-04-29T01:01:30.915Z,79.17
2019-04-29T01:02:30.905Z,79.89
2019-04-29T01:03:30.891Z,79.68
2019-04-29T01:04:30.904Z,80.30
2019-04-29T01:05:30.871Z,80.30
2019-04-29T01:06:30.857Z,80.09
2019-04-29T01:07:30.846Z,80.09
2019-04-29T01:08:30.835Z,80.30
2019-04-29T01:09:30.863Z,79.48
2019-04-29T01:10:30.822Z,79.58
2019-04-29T01:11:30.803Z,79.79
2019-04-29T01:12:30.792Z,79.68
2019-04-29T01:13:30.778Z,80.30
2019-04-29T01:14:30.769Z,80.30
2019-04-29T01:15:30.785Z,79.99
2019-04-29T01:16:30.748Z,80.30
2019-04-29T01:17:30.737Z,80.60
2019-04-29T01:18:30.724Z,80.81
2019-04-29T01:19:30.714Z,80.71
2019-04-29T01:20:30.727Z,80.51
2019-04-29T01:21:30.693Z,80.60
2019-04-29T01:22:30.681Z,81.01
2019-04-29T01:23:30.668Z,81.12
2019-04-29T01:24:30.660Z,80.81
2019-04-29T01:25:30.674Z,81.15
2019-04-29T01:26:30.638Z,80.95
2019-04-29T01:27:30.661Z,81.77
2019-04-29T01:28:30.614Z,81.01
2019-04-29T01:29:30.605Z,81.46
2019-04-29T01:30:30.595Z,81.57
2019-04-29T01:31:30.581Z,81.57
2019-04-29T01:32:30.571Z,81.98
2019-04-29T01:33:30.587Z,81.77
2019-04-29T01:34:30.547Z,81.57
2019-04-29T01:35:30.537Z,81.43
2019-04-29T01:36:30.526Z,81.43
2019-04-29T01:37:30.515Z,81.12
2019-04-29T01:38:30.540Z,81.84
2019-04-29T01:39:30.493Z,82.04
2019-04-29T01:40:30.483Z,81.73
2019-04-29T01:41:30.473Z,82.14
2019-04-29T01:42:30.461Z,81.84
2019-04-29T01:43:30.449Z,81.73
2019-04-29T01:44:30.466Z,82.45
2019-04-29T01:45:30.428Z,81.84
2019-04-29T01:46:30.417Z,81.98
2019-04-29T01:47:30.408Z,82.35
2019-04-29T01:48:30.393Z,82.49
2019-04-29T01:49:30.420Z,82.79
2019-04-29T01:50:30.381Z,82.90
2019-04-29T01:51:30.365Z,82.90
2019-04-29T01:52:30.351Z,83.20
2019-04-29T01:53:30.339Z,82.69
2019-04-29T01:54:30.329Z,83.20
2019-04-29T01:55:30.340Z,84.03
2019-04-29T01:56:30.304Z,83.45
2019-04-29T01:57:30.294Z,84.17
2019-04-29T01:58:30.285Z,84.23
2019-04-29T01:59:30.274Z,84.47
2019-04-29T02:00:30.287Z,84.37
2019-04-29T02:01:30.249Z,84.58
2019-04-29T02:02:30.242Z,84.47
2019-04-29T02:03:30.231Z,84.68
2019-04-29T02:04:30.216Z,84.58
2019-04-29T02:05:30.229Z,84.78
2019-04-29T02:06:30.197Z,84.88
2019-04-29T02:07:30.183Z,84.99
2019-04-29T02:08:30.171Z,84.88
2019-04-29T02:09:30.224Z,85.30
2019-04-29T02:10:30.173Z,85.71
2019-04-29T02:11:30.140Z,85.19
2019-04-29T02:12:30.132Z,85.39
2019-04-29T02:13:30.117Z,85.09
2019-04-29T02:14:30.106Z,85.60
2019-04-29T02:15:30.119Z,85.50
2019-04-29T02:16:30.087Z,85.71
2019-04-29T02:17:30.074Z,85.60
2019-04-29T02:18:30.060Z,85.60
2019-04-29T02:19:30.051Z,85.50
2019-04-29T02:20:30.066Z,85.80
2019-04-29T02:21:30.026Z,86.22
2019-04-29T02:22:30.016Z,85.74
2019-04-29T02:23:30.006Z,86.01
2019-04-29T02:24:29.993Z,86.36
2019-04-29T02:25:30.009Z,86.11
2019-04-29T02:26:29.971Z,86.32
2019-04-29T02:27:29.968Z,86.32
2019-04-29T02:28:29.948Z,86.32
2019-04-29T02:29:29.938Z,85.80
2019-04-29T02:30:29.957Z,86.32
2019-04-29T02:31:29.933Z,86.52
2019-04-29T02:32:29.904Z,86.66
2019-04-29T02:33:29.904Z,86.83
2019-04-29T02:34:29.885Z,86.93
2019-04-29T02:35:29.902Z,86.83
2019-04-29T02:36:30.344Z,86.63
2019-04-29T02:37:29.849Z,86.52
2019-04-29T02:38:29.838Z,86.32
2019-04-29T02:39:29.825Z,86.52
2019-04-29T02:40:29.841Z,86.63
2019-04-29T02:41:29.819Z,86.93
2019-04-29T02:42:29.799Z,86.87
2019-04-29T02:43:29.784Z,86.77
2019-04-29T02:44:29.770Z,87.08
2019-04-29T02:45:29.877Z,87.08
2019-04-29T02:46:29.748Z,87.38
2019-04-29T02:47:29.741Z,87.38
2019-04-29T02:48:34.272Z,87.38
2019-04-29T02:49:30.714Z,87.38
2019-04-29T02:50:29.729Z,87.90
2019-04-29T02:51:29.692Z,87.79
2019-04-29T02:52:29.684Z,87.90
2019-04-29T02:53:29.672Z,88.00
2019-04-29T02:54:29.662Z,87.90
2019-04-29T02:55:29.675Z,87.70
2019-04-29T02:56:29.638Z,87.79
2019-04-29T02:57:29.635Z,87.79
2019-04-29T02:58:29.617Z,87.90
2019-04-29T02:59:29.610Z,88.00
2019-04-29T03:00:29.618Z,88.21
2019-04-29T03:01:29.582Z,88.41
2019-04-29T03:02:29.575Z,88.21
2019-04-29T03:03:29.563Z,88.10
2019-04-29T03:04:29.549Z,87.90
2019-04-29T03:05:29.567Z,87.90
2019-04-29T03:06:29.529Z,87.90
2019-04-29T03:07:29.520Z,88.21
2019-04-29T03:08:29.514Z,87.90
2019-04-29T03:09:29.494Z,88.31
2019-04-29T03:10:29.508Z,88.82
2019-04-29T03:11:29.475Z,88.82
2019-04-29T03:12:29.462Z,88.82
2019-04-29T03:13:29.453Z,88.86
2019-04-29T03:14:29.440Z,89.17
2019-04-29T03:15:29.457Z,89.43
2019-04-29T03:16:29.422Z,89.37
2019-04-29T03:17:29.409Z,89.69
2019-04-29T03:18:29.399Z,89.37
2019-04-29T03:19:29.388Z,89.58
2019-04-29T03:20:29.402Z,89.64
2019-04-29T03:21:29.385Z,89.27
2019-04-29T03:22:29.352Z,89.54
2019-04-29T03:23:29.345Z,89.23
2019-04-29T03:24:29.335Z,89.33
2019-04-29T03:25:29.347Z,89.54
2019-04-29T03:26:29.308Z,89.54
2019-04-29T03:27:29.298Z,89.48
2019-04-29T03:28:29.288Z,89.69
2019-04-29T03:29:29.277Z,90.26
2019-04-29T03:30:29.299Z,90.30
2019-04-29T03:31:29.255Z,90.26
2019-04-29T03:32:29.245Z,90.30
2019-04-29T03:33:29.249Z,90.50
2019-04-29T03:34:29.240Z,90.91
2019-04-29T03:35:29.237Z,90.97
2019-04-29T03:36:29.202Z,90.87
2019-04-29T03:37:29.190Z,90.36
2019-04-29T03:38:29.182Z,90.91
2019-04-29T03:39:29.169Z,90.67
2019-04-29T03:40:29.183Z,90.56
2019-04-29T03:41:29.150Z,90.46
2019-04-29T03:42:29.140Z,90.67
2019-04-29T03:43:29.125Z,90.97
2019-04-29T03:44:29.117Z,89.84
2019-04-29T03:45:29.129Z,90.36
2019-04-29T03:46:29.094Z,90.36
2019-04-29T03:47:29.083Z,90.77
2019-04-29T03:48:29.073Z,90.56
2019-04-29T03:49:29.062Z,90.67
2019-04-29T03:50:29.076Z,90.67
2019-04-29T03:51:29.067Z,90.26
2019-04-29T03:52:29.029Z,90.36
2019-04-29T03:53:29.026Z,90.56
2019-04-29T03:54:29.009Z,90.77
2019-04-29T03:55:39.071Z,90.56
2019-04-29T03:56:29.988Z,90.46
2019-04-29T03:57:28.976Z,90.46
2019-04-29T03:58:28.972Z,90.46
2019-04-29T03:59:28.956Z,90.36
2019-04-29T04:00:28.978Z,90.26
2019-04-29T04:01:28.935Z,90.56
2019-04-29T04:02:28.923Z,91.18
2019-04-29T04:03:28.913Z,90.67
2019-04-29T04:04:28.899Z,90.36
2019-04-29T04:05:28.924Z,90.46
2019-04-29T04:06:28.877Z,90.87
2019-04-29T04:07:28.870Z,91.08
2019-04-29T04:08:28.868Z,91.08
2019-04-29T04:09:28.847Z,90.87
2019-04-29T04:10:28.863Z,91.08
2019-04-29T04:11:28.855Z,91.08
2019-04-29T04:12:28.813Z,90.97
2019-04-29T04:13:28.808Z,91.28
2019-04-29T04:14:28.791Z,90.97
2019-04-29T04:15:28.804Z,91.28
2019-04-29T04:16:28.773Z,91.18
2019-04-29T04:17:28.760Z,91.18
2019-04-29T04:18:28.762Z,90.97
2019-04-29T04:19:28.738Z,90.67
2019-04-29T04:20:28.755Z,91.08
2019-04-29T04:21:28.717Z,91.08
2019-04-29T04:22:28.704Z,90.77
2019-04-29T04:23:28.695Z,91.49
2019-04-29T04:24:28.685Z,91.38
2019-04-29T04:25:28.702Z,91.28
2019-04-29T04:26:28.663Z,91.18
2019-04-29T04:27:28.652Z,91.08
2019-04-29T04:28:28.641Z,91.49
2019-04-29T04:29:28.631Z,91.69
2019-04-29T04:30:28.644Z,92.10
2019-04-29T04:31:28.612Z,91.49
2019-04-29T04:32:28.599Z,91.38
2019-04-29T04:33:28.586Z,91.38
2019-04-29T04:34:28.576Z,91.49
2019-04-29T04:35:28.588Z,91.80
2019-04-29T04:36:28.556Z,91.38
2019-04-29T04:37:28.546Z,91.38
2019-04-29T04:38:28.532Z,91.24
2019-04-29T04:39:28.523Z,91.35
2019-04-29T04:40:28.535Z,91.35
2019-04-29T04:41:28.513Z,91.35
2019-04-29T04:42:30.085Z,91.18
2019-04-29T04:43:28.477Z,91.14
2019-04-29T04:44:28.466Z,91.24
2019-04-29T04:45:28.479Z,91.03
2019-04-29T04:46:28.444Z,91.14
2019-04-29T04:47:28.432Z,91.38
2019-04-29T04:48:28.420Z,91.55
2019-04-29T04:49:28.410Z,92.31
2019-04-29T04:50:28.427Z,92.27
2019-04-29T04:51:28.389Z,91.44
2019-04-29T04:52:28.401Z,91.08
2019-04-29T04:53:28.366Z,90.97
2019-04-29T04:54:31.375Z,91.38
2019-04-29T04:55:28.365Z,91.28
2019-04-29T04:56:28.333Z,91.55
2019-04-29T04:57:28.320Z,92.21
2019-04-29T04:58:28.310Z,92.16
2019-04-29T04:59:28.321Z,92.31
2019-04-29T05:00:28.323Z,91.59
2019-04-29T05:01:28.274Z,91.38
2019-04-29T05:02:28.263Z,90.93
2019-04-29T05:03:28.266Z,91.86
2019-04-29T05:04:28.242Z,92.21
2019-04-29T05:05:28.258Z,92.06
2019-04-29T05:06:28.219Z,92.27
2019-04-29T05:07:28.211Z,92.06
2019-04-29T05:08:28.196Z,91.96
2019-04-29T05:09:28.185Z,91.44
2019-04-29T05:10:28.198Z,91.44
2019-04-29T05:11:28.162Z,91.24
2019-04-29T05:12:28.155Z,91.35
2019-04-29T05:13:28.808Z,91.44
2019-04-29T05:14:28.132Z,90.93
2019-04-29T05:15:28.142Z,91.24
2019-04-29T05:16:28.106Z,90.83
2019-04-29T05:17:28.095Z,91.55
2019-04-29T05:18:28.084Z,91.55
2019-04-29T05:19:28.073Z,91.44
2019-04-29T05:20:28.158Z,91.86
2019-04-29T05:21:28.057Z,92.06
2019-04-29T05:22:28.044Z,92.06
2019-04-29T05:23:28.030Z,92.16
2019-04-29T05:24:28.024Z,92.02
2019-04-29T05:25:28.032Z,91.82
2019-04-29T05:26:28.038Z,91.40
2019-04-29T05:27:27.987Z,91.40
2019-04-29T05:28:27.977Z,91.50
2019-04-29T05:29:28.813Z,91.71
2019-04-29T05:30:28.006Z,91.44
2019-04-29T05:31:27.939Z,92.16
2019-04-29T05:32:27.928Z,92.06
2019-04-29T05:33:27.920Z,92.06
2019-04-29T05:34:27.906Z,92.12
2019-04-29T05:35:27.920Z,92.06
2019-04-29T05:36:27.887Z,92.06
2019-04-29T05:37:27.873Z,92.12
2019-04-29T05:38:27.862Z,91.75
2019-04-29T05:39:27.850Z,91.91
2019-04-29T05:40:27.864Z,91.82
2019-04-29T05:41:30.028Z,91.82
2019-04-29T05:42:28.821Z,91.82
2019-04-29T05:43:32.100Z,92.02
2019-04-29T05:44:28.795Z,91.86
2019-04-29T05:45:27.808Z,91.75
2019-04-29T05:46:27.773Z,92.53
2019-04-29T05:47:27.772Z,91.86
2019-04-29T05:48:31.961Z,92.43
2019-04-29T05:49:28.742Z,92.57
2019-04-29T05:50:27.754Z,92.57
2019-04-29T05:51:28.592Z,92.57
2019-04-29T05:52:30.047Z,92.57
2019-04-29T05:53:27.697Z,92.32
2019-04-29T05:54:31.752Z,92.22
2019-04-29T05:55:28.699Z,92.63
2019-04-29T05:56:27.665Z,92.43
2019-04-29T05:57:27.653Z,92.12
2019-04-29T05:58:27.640Z,91.91
2019-04-29T05:59:27.629Z,92.02
2019-04-29T06:00:27.643Z,91.50
2019-04-29T06:01:27.606Z,92.43
2019-04-29T06:02:33.712Z,92.53
2019-04-29T06:03:28.583Z,91.75
2019-04-29T06:04:28.726Z,92.78
2019-04-29T06:05:27.601Z,92.16
2019-04-29T06:06:27.552Z,92.68
2019-04-29T06:07:27.540Z,92.36
2019-04-29T06:08:27.531Z,92.78
2019-04-29T06:09:27.518Z,92.68
2019-04-29T06:10:27.508Z,93.29
2019-04-29T06:11:27.520Z,92.94
2019-04-29T06:12:27.486Z,92.53
2019-04-29T06:13:27.473Z,92.98
2019-04-29T06:14:27.462Z,92.53
2019-04-29T06:15:27.452Z,92.27
2019-04-29T06:16:27.476Z,93.15
2019-04-29T06:17:27.428Z,92.78
2019-04-29T06:18:27.418Z,93.19
2019-04-29T06:19:27.407Z,93.35
2019-04-29T06:20:27.397Z,93.45
2019-04-29T06:21:27.390Z,93.15
2019-04-29T06:22:27.397Z,93.25
2019-04-29T06:23:27.364Z,93.25
2019-04-29T06:24:27.352Z,94.27
2019-04-29T06:25:27.343Z,93.96
2019-04-29T06:26:27.333Z,93.35
2019-04-29T06:27:27.343Z,93.15
2019-04-29T06:28:28.172Z,92.74
2019-04-29T06:29:27.295Z,93.25
2019-04-29T06:30:27.285Z,93.15
2019-04-29T06:31:27.273Z,93.25
2019-04-29T06:32:27.299Z,92.83
2019-04-29T06:33:29.071Z,92.83
2019-04-29T06:34:27.241Z,93.15
2019-04-29T06:35:27.230Z,93.04
2019-04-29T06:36:27.218Z,93.55
2019-04-29T06:37:27.207Z,93.86
2019-04-29T06:38:27.221Z,93.25
2019-04-29T06:39:27.185Z,93.15
2019-04-29T06:40:30.742Z,93.55
2019-04-29T06:41:28.165Z,93.04
2019-04-29T06:42:27.164Z,93.15
2019-04-29T06:43:28.914Z,92.94
2019-04-29T06:44:27.128Z,92.94
2019-04-29T06:45:27.120Z,92.90
2019-04-29T06:46:27.107Z,92.74
2019-04-29T06:47:27.096Z,92.83
2019-04-29T06:48:27.118Z,92.53
2019-04-29T06:49:27.074Z,92.63
2019-04-29T06:50:27.063Z,93.04
2019-04-29T06:51:27.056Z,93.45
2019-04-29T06:52:27.044Z,93.35
2019-04-29T06:53:27.067Z,92.83
2019-04-29T06:54:27.020Z,92.83
2019-04-29T06:55:27.013Z,93.04
2019-04-29T06:56:26.998Z,93.00
2019-04-29T06:57:26.990Z,92.53
2019-04-29T06:58:26.976Z,93.35
2019-04-29T06:59:26.992Z,92.43
2019-04-29T07:00:26.958Z,92.79
2019-04-29T07:01:26.946Z,93.41
2019-04-29T07:02:26.933Z,93.51
2019-04-29T07:03:26.923Z,92.74
2019-04-29T07:04:30.592Z,93.10
2019-04-29T07:05:27.901Z,92.59
2019-04-29T07:06:26.890Z,92.90
2019-04-29T07:07:26.880Z,92.59
2019-04-29T07:08:26.872Z,92.74
2019-04-29T07:09:26.860Z,93.25
2019-04-29T07:10:27.345Z,92.74
2019-04-29T07:11:26.838Z,93.20
2019-04-29T07:12:26.833Z,94.02
2019-04-29T07:13:26.814Z,92.59
2019-04-29T07:14:28.305Z,92.83
2019-04-29T07:15:27.821Z,93.25
2019-04-29T07:16:31.573Z,93.25
2019-04-29T07:17:27.769Z,93.96
2019-04-29T07:18:26.760Z,93.82
2019-04-29T07:19:28.251Z,93.76
2019-04-29T07:20:26.763Z,93.45
2019-04-29T07:21:26.727Z,94.07
2019-04-29T07:22:27.537Z,93.04
2019-04-29T07:23:26.704Z,93.51
2019-04-29T07:24:26.697Z,93.71
2019-04-29T07:25:28.781Z,93.82
2019-04-29T07:26:26.674Z,93.71
2019-04-29T07:27:26.664Z,93.82
2019-04-29T07:28:26.654Z,93.51
2019-04-29T07:29:30.559Z,93.10
2019-04-29T07:30:29.325Z,92.90
2019-04-29T07:31:28.242Z,92.90
2019-04-29T07:32:27.608Z,93.51
2019-04-29T07:33:26.596Z,93.30
2019-04-29T07:34:28.998Z,93.71
2019-04-29T07:35:27.601Z,94.08
2019-04-29T07:36:26.565Z,93.62
2019-04-29T07:37:29.671Z,93.26
2019-04-29T07:38:40.147Z,93.16
2019-04-29T07:39:31.818Z,93.37
2019-04-29T07:40:27.549Z,92.55
2019-04-29T07:41:26.512Z,93.37
2019-04-29T07:42:32.099Z,93.47
2019-04-29T07:43:27.489Z,92.75
2019-04-29T07:44:32.775Z,92.34
2019-04-29T07:45:28.130Z,92.03
2019-04-29T07:46:26.457Z,92.03
2019-04-29T07:47:29.457Z,92.55
2019-04-29T07:48:26.437Z,92.65
2019-04-29T07:49:26.424Z,92.30
2019-04-29T07:50:28.363Z,91.89
2019-04-29T07:51:26.403Z,92.14
2019-04-29T07:52:26.394Z,91.69
2019-04-29T07:53:34.983Z,91.69
2019-04-29T07:54:27.371Z,91.69
2019-04-29T07:55:30.792Z,92.30
2019-04-29T07:56:27.349Z,91.78
2019-04-29T07:57:26.339Z,90.97
2019-04-29T07:58:27.333Z,91.89
2019-04-29T07:59:26.323Z,91.89
2019-04-29T08:00:26.331Z,91.27
2019-04-29T08:01:26.419Z,91.17
2019-04-29T08:02:26.286Z,91.89
2019-04-29T08:03:26.275Z,91.17
2019-04-29T08:04:26.264Z,91.17
2019-04-29T08:05:26.277Z,92.10
2019-04-29T08:06:26.244Z,91.48
2019-04-29T08:07:26.233Z,91.17
2019-04-29T08:08:26.222Z,91.99
2019-04-29T08:09:26.211Z,91.27
2019-04-29T08:10:28.590Z,91.17
2019-04-29T08:11:26.189Z,90.77
2019-04-29T08:12:26.183Z,91.17
2019-04-29T08:13:26.174Z,91.13
2019-04-29T08:14:26.167Z,91.23
2019-04-29T08:15:26.174Z,90.82
2019-04-29T08:16:26.135Z,90.82
2019-04-29T08:17:26.126Z,90.92
2019-04-29T08:18:26.113Z,90.52
2019-04-29T08:19:29.533Z,90.41
2019-04-29T08:20:27.116Z,90.27
2019-04-29T08:21:26.080Z,90.00
2019-04-29T08:22:27.760Z,89.80
2019-04-29T08:23:26.074Z,89.90
2019-04-29T08:24:26.048Z,90.52
2019-04-29T08:25:27.174Z,90.41
2019-04-29T08:26:26.028Z,89.70
2019-04-29T08:27:39.094Z,88.98
2019-04-29T08:28:27.004Z,89.80
2019-04-29T08:29:25.992Z,89.39
2019-04-29T08:30:26.007Z,88.94
2019-04-29T08:31:25.993Z,88.57
2019-04-29T08:32:25.957Z,88.98
2019-04-29T08:33:25.949Z,88.23
2019-04-29T08:34:25.939Z,88.74
2019-04-29T08:35:25.950Z,88.33
2019-04-29T08:36:25.916Z,88.53
2019-04-29T08:37:25.903Z,89.25
2019-04-29T08:38:25.892Z,88.64
2019-04-29T08:39:29.361Z,88.23
2019-04-29T08:40:26.893Z,87.76
2019-04-29T08:41:28.582Z,87.71
2019-04-29T08:42:25.846Z,87.92
2019-04-29T08:43:25.836Z,87.04
2019-04-29T08:44:25.823Z,87.14
2019-04-29T08:45:25.845Z,86.83
2019-04-29T08:46:25.802Z,86.43
2019-04-29T08:47:30.563Z,86.69
2019-04-29T08:48:26.781Z,87.14
2019-04-29T08:49:25.769Z,87.04
2019-04-29T08:50:25.782Z,87.45
2019-04-29T08:51:25.749Z,86.94
2019-04-29T08:52:25.735Z,87.10
2019-04-29T08:53:25.723Z,86.69
2019-04-29T08:54:25.713Z,86.18
2019-04-29T08:55:26.660Z,86.53
2019-04-29T08:56:25.690Z,86.38
2019-04-29T08:57:25.679Z,86.49
2019-04-29T08:58:25.668Z,85.73
2019-04-29T08:59:25.812Z,85.73
2019-04-29T09:00:25.671Z,85.63
2019-04-29T09:01:29.416Z,85.73
2019-04-29T09:02:34.448Z,85.73
2019-04-29T09:03:39.589Z,85.83
2019-04-29T09:04:28.478Z,85.42
2019-04-29T09:05:26.612Z,85.63
2019-04-29T09:06:27.714Z,85.53
2019-04-29T09:07:26.563Z,84.88
2019-04-29T09:08:28.844Z,84.91
2019-04-29T09:09:28.983Z,85.18
2019-04-29T09:10:25.558Z,84.47
2019-04-29T09:11:25.522Z,84.57
2019-04-29T09:12:29.285Z,84.22
2019-04-29T09:13:25.502Z,83.95
2019-04-29T09:14:25.492Z,84.01
2019-04-29T09:15:25.504Z,83.92
2019-04-29T09:16:25.470Z,83.51
2019-04-29T09:17:25.455Z,83.00
2019-04-29T09:18:25.448Z,82.75
2019-04-29T09:19:25.439Z,82.86
2019-04-29T09:20:25.450Z,82.86
2019-04-29T09:21:25.413Z,81.53
2019-04-29T09:22:25.405Z,81.84
2019-04-29T09:23:25.393Z,81.63
2019-04-29T09:24:25.383Z,81.53
2019-04-29T09:25:26.292Z,81.12
2019-04-29T09:26:25.359Z,80.91
2019-04-29T09:27:25.347Z,80.68
2019-04-29T09:28:28.181Z,80.78
2019-04-29T09:29:25.327Z,80.57
2019-04-29T09:30:25.344Z,80.57
2019-04-29T09:31:25.308Z,80.88
2019-04-29T09:32:25.291Z,80.47
2019-04-29T09:33:25.281Z,80.27
2019-04-29T09:34:26.484Z,80.37
2019-04-29T09:35:28.562Z,80.37
2019-04-29T09:36:28.467Z,80.88
2019-04-29T09:37:25.238Z,80.47
2019-04-29T09:38:25.226Z,79.86
2019-04-29T09:39:25.216Z,80.47
2019-04-29T09:40:25.205Z,80.41
2019-04-29T09:41:25.217Z,80.47
2019-04-29T09:42:25.181Z,80.57
2019-04-29T09:43:25.920Z,80.43
2019-04-29T09:44:25.161Z,80.16
2019-04-29T09:45:25.150Z,80.27
2019-04-29T09:46:25.164Z,80.47
2019-04-29T09:47:25.127Z,80.16
2019-04-29T09:48:25.118Z,80.61
2019-04-29T09:49:25.106Z,80.91
2019-04-29T09:50:28.232Z,81.43
2019-04-29T09:51:27.625Z,81.63
2019-04-29T09:52:25.074Z,81.73
2019-04-29T09:53:25.063Z,81.73
2019-04-29T09:54:25.050Z,81.43
2019-04-29T09:55:25.039Z,81.43
2019-04-29T09:56:25.034Z,81.53
2019-04-29T09:57:25.041Z,81.73
2019-04-29T09:58:25.007Z,81.53
2019-04-29T09:59:24.996Z,81.53
2019-04-29T10:00:24.985Z,81.94
2019-04-29T10:01:24.973Z,82.08
2019-04-29T10:02:26.273Z,81.94
2019-04-29T10:03:25.949Z,82.14
2019-04-29T10:04:24.945Z,82.14
2019-04-29T10:05:24.934Z,82.14
2019-04-29T10:06:24.918Z,81.53
2019-04-29T10:07:24.941Z,81.53
2019-04-29T10:08:24.896Z,81.94
2019-04-29T10:09:24.887Z,81.63
2019-04-29T10:10:24.925Z,81.53
2019-04-29T10:11:24.862Z,81.53
2019-04-29T10:12:24.853Z,82.14
2019-04-29T10:13:24.865Z,81.43
2019-04-29T10:14:24.834Z,81.94
2019-04-29T10:15:24.821Z,81.63
2019-04-29T10:16:24.809Z,82.24
2019-04-29T10:17:24.801Z,81.43
2019-04-29T10:18:29.260Z,81.73
2019-04-29T10:19:24.774Z,81.43
2019-04-29T10:20:24.761Z,81.43
2019-04-29T10:21:24.761Z,81.43
2019-04-29T10:22:24.743Z,82.35
2019-04-29T10:23:24.757Z,82.65
2019-04-29T10:24:24.720Z,82.04
2019-04-29T10:25:24.707Z,81.94
2019-04-29T10:26:24.700Z,81.70
2019-04-29T10:27:24.687Z,81.73
2019-04-29T10:28:24.713Z,81.49
2019-04-29T10:29:25.808Z,82.24
2019-04-29T10:30:26.802Z,82.10
2019-04-29T10:31:25.640Z,82.21
2019-04-29T10:32:24.630Z,81.53
2019-04-29T10:33:24.620Z,81.80
2019-04-29T10:34:27.000Z,81.39
2019-04-29T10:35:25.597Z,82.04
2019-04-29T10:36:26.270Z,81.84
2019-04-29T10:37:31.405Z,81.70
2019-04-29T10:38:25.562Z,81.53
2019-04-29T10:39:24.589Z,81.70
2019-04-29T10:40:24.542Z,81.94
2019-04-29T10:41:24.531Z,81.63
2019-04-29T10:42:24.523Z,81.63
2019-04-29T10:43:24.517Z,82.35
2019-04-29T10:44:24.497Z,82.35
2019-04-29T10:45:24.514Z,82.55
2019-04-29T10:46:24.475Z,82.35
2019-04-29T10:47:24.464Z,82.24
2019-04-29T10:48:24.453Z,82.45
2019-04-29T10:49:24.442Z,82.14
2019-04-29T10:50:24.456Z,82.45
2019-04-29T10:51:27.477Z,82.45
2019-04-29T10:52:24.413Z,82.65
2019-04-29T10:53:24.399Z,82.45
2019-04-29T10:54:24.390Z,82.35
2019-04-29T10:55:25.571Z,81.94
2019-04-29T10:56:25.364Z,82.24
2019-04-29T10:57:24.355Z,82.24
2019-04-29T10:58:29.854Z,82.24
2019-04-29T10:59:35.653Z,82.00
2019-04-29T11:00:25.359Z,82.04
2019-04-29T11:01:24.315Z,82.00
2019-04-29T11:02:24.300Z,81.90
2019-04-29T11:03:25.058Z,82.10
2019-04-29T11:04:24.279Z,82.10
2019-04-29T11:05:24.267Z,81.39
2019-04-29T11:06:24.279Z,81.49
2019-04-29T11:07:26.556Z,81.80
2019-04-29T11:08:24.233Z,81.80
2019-04-29T11:09:24.222Z,81.66
2019-04-29T11:10:25.573Z,81.80
2019-04-29T11:11:27.141Z,81.80
2019-04-29T11:12:24.190Z,81.80
2019-04-29T11:13:24.182Z,81.76
2019-04-29T11:14:24.823Z,81.70
2019-04-29T11:15:24.159Z,80.94
2019-04-29T11:16:29.467Z,81.39
2019-04-29T11:17:25.166Z,81.59
2019-04-29T11:18:25.137Z,81.70
2019-04-29T11:19:24.115Z,81.35
2019-04-29T11:20:24.104Z,81.45
2019-04-29T11:21:25.068Z,81.45
2019-04-29T11:22:24.108Z,81.56
2019-04-29T11:23:24.077Z,81.66
2019-04-29T11:24:24.061Z,81.52
2019-04-29T11:25:24.050Z,81.11
2019-04-29T11:26:24.043Z,81.01
2019-04-29T11:27:24.057Z,81.11
2019-04-29T11:28:24.021Z,81.11
2019-04-29T11:29:27.455Z,80.97
2019-04-29T11:30:24.996Z,80.87
2019-04-29T11:31:23.986Z,80.16
2019-04-29T11:32:24.932Z,80.05
2019-04-29T11:33:23.987Z,80.26
2019-04-29T11:34:23.954Z,80.36
2019-04-29T11:35:24.580Z,79.24
2019-04-29T11:36:23.932Z,79.44
2019-04-29T11:37:24.184Z,78.93
2019-04-29T11:38:23.934Z,79.14
2019-04-29T11:39:23.898Z,79.14
2019-04-29T11:40:26.010Z,79.34
2019-04-29T11:41:24.877Z,79.27
2019-04-29T11:42:23.866Z,79.44
2019-04-29T11:43:23.900Z,79.44
2019-04-29T11:44:26.651Z,79.44
2019-04-29T11:45:23.844Z,79.24
2019-04-29T11:46:23.826Z,79.75
2019-04-29T11:47:25.153Z,79.00
2019-04-29T11:48:23.803Z,79.10
2019-04-29T11:49:23.817Z,79.00
2019-04-29T11:50:26.810Z,78.76
2019-04-29T11:51:23.770Z,79.06
2019-04-29T11:52:27.972Z,78.49
2019-04-29T11:53:24.746Z,78.35
2019-04-29T11:54:23.761Z,78.80
2019-04-29T11:55:23.726Z,78.66
2019-04-29T11:56:23.716Z,78.89
2019-04-29T11:57:23.705Z,78.96
2019-04-29T11:58:23.693Z,78.76
2019-04-29T11:59:23.812Z,78.86
2019-04-29T12:00:23.673Z,78.86
2019-04-29T12:01:37.463Z,78.25
2019-04-29T12:02:44.235Z,78.45
2019-04-29T12:03:24.637Z,78.62
2019-04-29T12:04:23.651Z,78.11
2019-04-29T12:05:23.613Z,77.70
2019-04-29T12:06:23.603Z,77.60
2019-04-29T12:07:31.746Z,77.70
2019-04-29T12:08:24.580Z,77.60
2019-04-29T12:09:25.397Z,77.50
2019-04-29T12:10:24.557Z,77.40
2019-04-29T12:11:23.549Z,77.36
2019-04-29T12:12:23.536Z,76.86
2019-04-29T12:13:27.254Z,76.75
2019-04-29T12:14:23.516Z,76.65
2019-04-29T12:15:23.529Z,76.75
2019-04-29T12:16:24.622Z,76.51
2019-04-29T12:17:23.483Z,76.21
2019-04-29T12:18:23.473Z,76.10
2019-04-29T12:19:23.458Z,76.31
2019-04-29T12:20:23.470Z,75.70
2019-04-29T12:21:25.576Z,75.97
2019-04-29T12:22:30.027Z,75.26
2019-04-29T12:23:24.413Z,75.26
2019-04-29T12:24:23.405Z,75.46
2019-04-29T12:25:27.488Z,74.65
2019-04-29T12:26:24.381Z,75.02
2019-04-29T12:27:23.371Z,74.21
2019-04-29T12:28:23.357Z,74.41
2019-04-29T12:29:23.349Z,74.62
2019-04-29T12:30:23.338Z,74.17
2019-04-29T12:31:23.365Z,73.87
2019-04-29T12:32:25.033Z,73.77
2019-04-29T12:33:23.307Z,73.77
2019-04-29T12:34:26.489Z,73.06
2019-04-29T12:35:23.469Z,73.12
2019-04-29T12:36:23.314Z,72.82
2019-04-29T12:37:25.636Z,72.82
2019-04-29T12:38:23.318Z,72.61
2019-04-29T12:39:42.257Z,72.82
2019-04-29T12:40:24.229Z,72.82
2019-04-29T12:41:29.665Z,73.02
2019-04-29T12:42:24.232Z,72.82
2019-04-29T12:43:23.195Z,73.02
2019-04-29T12:44:34.614Z,73.02
2019-04-29T12:45:24.182Z,72.78
2019-04-29T12:46:23.165Z,72.78
2019-04-29T12:47:26.544Z,72.68
2019-04-29T12:48:24.909Z,72.55
2019-04-29T12:49:23.128Z,72.14
2019-04-29T12:50:23.227Z,72.24
2019-04-29T12:51:23.378Z,71.84
2019-04-29T12:52:23.170Z,71.91